Time;durP1;ratioP1;P1;durP2;ratioP2;P2;SDS_P1;SDS_P2;PMS_P1;PMS_P2;Temp;Humidity;BMP_temperature;BMP_pressure;BME280_temperature;BME280_humidity;BME280_pressure;Samples;Min_cycle;Max_cycle;Signal;HPM_P1;HPM_P2
2023/06/14 00:01:45;;;;;;;5.80;3.70;;;;;;;15.75;100.00;101655.47;5073390;28;20115;-81
2023/06/14 00:04:16;;;;;;;8.02;3.47;;;;;;;15.70;100.00;101657.75;5091925;28;20032;-80
2023/06/14 00:06:42;;;;;;;8.57;4.03;;;;;;;15.66;100.00;101651.03;5091563;28;20044;-80
2023/06/14 00:09:08;;;;;;;15.57;4.18;;;;;;;15.64;100.00;101655.69;5057198;28;20020;-81
2023/06/14 00:11:34;;;;;;;5.40;3.75;;;;;;;15.61;100.00;101658.69;5091512;28;20106;-80
2023/06/14 00:13:59;;;;;;;5.15;3.55;;;;;;;15.56;100.00;101664.50;5090736;28;20035;-81
2023/06/14 00:16:25;;;;;;;7.18;3.45;;;;;;;15.51;100.00;101667.66;5091447;28;20357;-81
2023/06/14 00:18:51;;;;;;;5.97;3.25;;;;;;;15.46;100.00;101667.25;5072747;28;20123;-80
2023/06/14 00:21:17;;;;;;;11.25;4.10;;;;;;;15.40;100.00;101667.84;5091379;28;20036;-80
2023/06/14 00:23:42;;;;;;;6.07;3.80;;;;;;;15.35;100.00;101662.09;5091203;28;20032;-81
2023/06/14 00:26:08;;;;;;;5.97;3.85;;;;;;;15.31;100.00;101664.22;5055998;28;20121;-80
2023/06/14 00:28:33;;;;;;;6.72;3.75;;;;;;;15.26;100.00;101669.19;5072723;28;20056;-80
2023/06/14 00:30:59;;;;;;;10.10;4.22;;;;;;;15.20;100.00;101664.44;5072717;28;20150;-80
2023/06/14 00:33:25;;;;;;;10.25;4.00;;;;;;;15.16;100.00;101665.72;5072839;28;20269;-80
2023/06/14 00:35:53;;;;;;;12.95;3.75;;;;;;;15.09;100.00;101665.50;5056137;28;20027;-80
2023/06/14 00:38:19;;;;;;;9.13;3.80;;;;;;;15.04;100.00;101665.09;5072918;28;20071;-79
2023/06/14 00:40:44;;;;;;;7.72;3.92;;;;;;;14.99;100.00;101664.69;5090817;28;20032;-83
2023/06/14 00:43:10;;;;;;;10.38;3.67;;;;;;;14.95;100.00;101666.81;5090827;28;20042;-80
2023/06/14 00:45:35;;;;;;;7.78;4.40;;;;;;;14.93;100.00;101663.44;5090753;28;20040;-80
2023/06/14 00:48:02;;;;;;;8.10;4.00;;;;;;;14.90;100.00;101662.88;5090809;28;20039;-79
2023/06/14 00:50:29;;;;;;;9.02;3.80;;;;;;;14.88;100.00;101671.06;5090817;28;20064;-79
2023/06/14 00:52:55;;;;;;;5.47;3.50;;;;;;;14.86;100.00;101661.50;5090697;28;20136;-79
2023/06/14 00:55:21;;;;;;;6.25;3.47;;;;;;;14.81;100.00;101665.47;5072188;28;20040;-79
2023/06/14 00:57:47;;;;;;;7.25;3.90;;;;;;;14.80;100.00;101668.28;5072228;28;20043;-79
2023/06/14 01:00:13;;;;;;;5.28;3.25;;;;;;;14.78;100.00;101670.28;5090290;28;20067;-79
2023/06/14 01:02:38;;;;;;;7.25;3.78;;;;;;;14.75;100.00;101666.06;5090123;28;20560;-81
2023/06/14 01:05:09;;;;;;;4.03;3.10;;;;;;;14.71;100.00;101661.97;5090679;28;20302;-78
2023/06/14 01:08:00;;;;;;;8.23;3.90;;;;;;;14.71;100.00;101661.13;5071857;28;20094;-81
2023/06/14 01:10:52;;;;;;;11.77;4.35;;;;;;;14.69;100.00;101668.44;5090598;28;20036;-79
2023/06/14 01:13:32;;;;;;;8.43;3.80;;;;;;;14.62;100.00;101661.00;5090522;28;20433;-79
2023/06/14 01:15:58;;;;;;;7.72;3.55;;;;;;;14.59;100.00;101663.94;5090013;28;20206;-78
2023/06/14 01:18:27;;;;;;;5.88;3.50;;;;;;;14.57;100.00;101667.75;5090149;28;20032;-81
2023/06/14 01:20:55;;;;;;;10.45;3.60;;;;;;;14.52;100.00;101654.81;5090486;28;20040;-81
2023/06/14 01:23:22;;;;;;;5.97;3.38;;;;;;;14.50;100.00;101658.63;5055596;28;20059;-80
2023/06/14 01:25:52;;;;;;;12.52;3.55;;;;;;;14.46;100.00;101661.59;5090290;28;20035;-81
2023/06/14 01:28:19;;;;;;;6.07;3.70;;;;;;;14.41;100.00;101660.34;5090475;28;20043;-81
2023/06/14 01:30:48;;;;;;;5.50;3.63;;;;;;;14.36;100.00;101665.25;5071767;28;20040;-81
2023/06/14 01:33:19;;;;;;;9.15;3.63;;;;;;;14.34;100.00;101664.56;5090016;28;20466;-81
2023/06/14 01:35:47;;;;;;;9.68;3.40;;;;;;;14.28;100.00;101668.66;5090211;28;20035;-81
2023/06/14 01:38:14;;;;;;;6.40;3.38;;;;;;;14.22;100.00;101667.41;5090140;28;20113;-81
2023/06/14 01:40:42;;;;;;;6.95;3.33;;;;;;;14.21;100.00;101671.09;5071846;28;20039;-81
2023/06/14 01:43:09;;;;;;;21.13;3.65;;;;;;;14.20;100.00;101669.38;5071528;28;20479;-81
2023/06/14 01:45:36;;;;;;;8.32;3.58;;;;;;;14.17;100.00;101671.50;5071962;28;20020;-80
2023/06/14 01:48:02;;;;;;;8.73;3.60;;;;;;;14.16;100.00;101667.13;5071977;28;20105;-81
2023/06/14 01:50:31;;;;;;;8.07;3.50;;;;;;;14.10;100.00;101671.22;5090336;28;20448;-79
2023/06/14 01:52:57;;;;;;;8.52;3.22;;;;;;;14.04;100.00;101669.94;5071852;28;20035;-81
2023/06/14 01:55:24;;;;;;;7.20;3.30;;;;;;;14.00;100.00;101665.03;5090246;28;20093;-81
2023/06/14 01:57:50;;;;;;;6.85;3.08;;;;;;;13.94;100.00;101669.09;5090036;28;20073;-81
2023/06/14 02:00:18;;;;;;;8.00;3.40;;;;;;;13.90;100.00;101665.88;5089925;28;20036;-81
2023/06/14 02:02:44;;;;;;;9.57;3.10;;;;;;;13.89;100.00;101658.84;5071726;28;20036;-80
2023/06/14 02:05:10;;;;;;;10.73;3.30;;;;;;;13.86;100.00;101664.47;5071609;28;20084;-81
2023/06/14 02:07:36;;;;;;;6.60;3.05;;;;;;;13.86;100.00;101668.97;5054425;28;20102;-80
2023/06/14 02:10:02;;;;;;;5.35;2.75;;;;;;;13.87;100.00;101668.00;5090046;28;20032;-80
2023/06/14 02:12:28;;;;;;;5.28;3.33;;;;;;;13.84;100.00;101673.59;5089974;28;20043;-79
2023/06/14 02:14:54;;;;;;;5.05;2.90;;;;;;;13.83;100.00;101664.75;5090098;28;20065;-79
2023/06/14 02:17:19;;;;;;;7.13;3.30;;;;;;;13.79;100.00;101666.00;5055161;28;20040;-79
2023/06/14 02:19:45;;;;;;;10.30;3.60;;;;;;;13.74;100.00;101666.44;5090051;28;20399;-80
2023/06/14 02:22:10;;;;;;;10.50;3.63;;;;;;;13.71;100.00;101666.72;5090120;28;20513;-79
2023/06/14 02:24:36;;;;;;;7.10;3.40;;;;;;;13.68;100.00;101660.81;5089996;28;20035;-80
2023/06/14 02:27:01;;;;;;;4.22;3.22;;;;;;;13.64;100.00;101667.41;5071523;28;20127;-80
2023/06/14 02:29:27;;;;;;;6.03;3.08;;;;;;;13.61;100.00;101667.69;5054779;28;20349;-80
2023/06/14 02:31:52;;;;;;;7.55;3.28;;;;;;;13.58;100.00;101668.81;5071713;28;20063;-80
2023/06/14 02:34:19;;;;;;;7.82;3.13;;;;;;;13.55;100.00;101667.28;5071414;28;20091;-80
2023/06/14 02:36:45;;;;;;;7.63;3.60;;;;;;;13.50;100.00;101676.69;5073932;28;20055;-80
2023/06/14 02:39:11;;;;;;;7.70;3.33;;;;;;;13.46;100.00;101676.09;5074990;28;20062;-81
2023/06/14 02:41:37;;;;;;;5.68;3.53;;;;;;;13.41;100.00;101670.34;5093190;28;20471;-81
2023/06/14 02:44:03;;;;;;;7.53;3.05;;;;;;;13.34;100.00;101678.03;5075002;28;20024;-80
2023/06/14 02:46:28;;;;;;;7.63;3.13;;;;;;;13.28;100.00;101675.06;5093461;28;20792;-80
2023/06/14 02:48:54;;;;;;;5.57;3.30;;;;;;;13.25;100.00;101678.84;5093755;28;20482;-80
2023/06/14 02:51:19;;;;;;;5.57;2.85;;;;;;;13.19;100.00;101676.72;5075050;28;20032;-80
2023/06/14 02:53:44;;;;;;;4.25;3.03;;;;;;;13.13;100.00;101677.25;5058589;28;20032;-80
2023/06/14 02:56:11;;;;;;;11.18;3.17;;;;;;;13.07;100.00;101681.31;5093163;28;20032;-80
2023/06/14 02:58:37;;;;;;;10.48;3.55;;;;;;;13.03;100.00;101682.53;5074691;28;20032;-80
2023/06/14 03:01:02;;;;;;;8.30;3.10;;;;;;;12.98;100.00;101680.28;5074845;28;20024;-80
2023/06/14 03:03:28;;;;;;;6.00;3.10;;;;;;;12.94;100.00;101688.69;5074548;28;20032;-79
2023/06/14 03:05:55;;;;;;;6.05;3.25;;;;;;;12.91;100.00;101695.16;5092740;28;20089;-79
2023/06/14 03:08:20;;;;;;;7.28;3.60;;;;;;;12.87;100.00;101691.06;5074467;28;20436;-79
2023/06/14 03:10:47;;;;;;;6.65;4.45;;;;;;;12.85;100.00;101695.69;5074907;28;20062;-79
2023/06/14 03:13:13;;;;;;;6.05;3.05;;;;;;;12.81;100.00;101699.63;5074697;28;20054;-79
2023/06/14 03:15:41;;;;;;;5.80;3.25;;;;;;;12.79;100.00;101702.41;5074566;28;20028;-79
2023/06/14 03:18:08;;;;;;;3.42;2.75;;;;;;;12.75;100.00;101700.13;5074641;28;20456;-79
2023/06/14 03:20:33;;;;;;;8.90;3.03;;;;;;;12.72;100.00;101698.59;5092690;28;20035;-79
2023/06/14 03:23:03;;;;;;;4.00;3.20;;;;;;;12.70;100.00;101703.19;5092844;28;20498;-79
2023/06/14 03:25:32;;;;;;;5.10;3.13;;;;;;;12.67;100.00;101704.31;5092630;28;20036;-80
2023/06/14 03:27:58;;;;;;;5.55;3.58;;;;;;;12.65;100.00;101708.94;5076342;28;20135;-80
2023/06/14 03:30:24;;;;;;;17.00;3.83;;;;;;;12.61;100.00;101706.66;5074630;28;20409;-79
2023/06/14 03:32:51;;;;;;;5.35;2.80;;;;;;;12.59;100.00;101705.97;5092668;28;20080;-78
2023/06/14 03:35:17;;;;;;;9.68;3.20;;;;;;;12.58;100.00;101714.94;5074949;28;20036;-78
2023/06/14 03:37:44;;;;;;;4.07;3.08;;;;;;;12.55;100.00;101720.53;5092695;28;20098;-78
2023/06/14 03:40:11;;;;;;;10.52;3.30;;;;;;;12.53;100.00;101715.31;5073747;28;20028;-78
2023/06/14 03:42:37;;;;;;;4.95;3.05;;;;;;;12.54;100.00;101719.69;5073857;28;20142;-78
2023/06/14 03:45:02;;;;;;;4.95;3.28;;;;;;;12.52;100.00;101713.63;5074264;28;20147;-78
2023/06/14 03:47:28;;;;;;;7.65;3.28;;;;;;;12.52;100.00;101721.63;5073162;28;20035;-78
2023/06/14 03:49:53;;;;;;;8.95;3.25;;;;;;;12.52;100.00;101718.97;5057648;28;20028;-78
2023/06/14 03:52:18;;;;;;;7.05;3.08;;;;;;;12.52;100.00;101721.63;5091983;28;20043;-78
2023/06/14 03:54:44;;;;;;;4.88;3.20;;;;;;;12.52;100.00;101730.50;5057243;28;20024;-78
2023/06/14 03:57:10;;;;;;;15.05;3.47;;;;;;;12.53;100.00;101728.66;5092316;28;20115;-78
2023/06/14 03:59:36;;;;;;;15.00;3.72;;;;;;;12.54;100.00;101730.38;5092185;28;20059;-78
2023/06/14 04:02:02;;;;;;;11.10;3.28;;;;;;;12.56;100.00;101731.09;5073904;28;20024;-78
2023/06/14 04:04:28;;;;;;;5.82;3.00;;;;;;;12.59;100.00;101736.16;5073556;28;20384;-78
2023/06/14 04:06:55;;;;;;;9.00;3.30;;;;;;;12.60;100.00;101742.34;5092136;28;20071;-78
2023/06/14 04:09:20;;;;;;;6.78;3.58;;;;;;;12.62;100.00;101738.56;5057313;28;20036;-77
2023/06/14 04:11:46;;;;;;;6.82;3.35;;;;;;;12.64;100.00;101744.59;5091595;28;20040;-76
2023/06/14 04:14:11;;;;;;;9.52;3.33;;;;;;;12.65;100.00;101740.13;5056962;28;20036;-77
2023/06/14 04:16:36;;;;;;;10.30;3.33;;;;;;;12.69;100.00;101745.09;5091789;28;20036;-77
2023/06/14 04:19:02;;;;;;;8.50;3.00;;;;;;;12.74;100.00;101746.53;5073643;28;20314;-77
2023/06/14 04:21:28;;;;;;;6.82;3.10;;;;;;;12.76;100.00;101749.88;5073229;28;20459;-78
2023/06/14 04:23:55;;;;;;;13.75;3.20;;;;;;;12.81;100.00;101750.38;5091658;28;20069;-77
2023/06/14 04:26:23;;;;;;;7.00;3.47;;;;;;;12.85;100.00;101743.75;5073695;28;20127;-78
2023/06/14 04:28:49;;;;;;;6.82;3.05;;;;;;;12.88;100.00;101746.16;5073235;28;20130;-79
2023/06/14 04:31:16;;;;;;;8.02;3.08;;;;;;;12.94;100.00;101745.63;5072609;28;20472;-79
2023/06/14 04:33:46;;;;;;;5.70;3.00;;;;;;;13.02;100.00;101750.34;5073126;28;20063;-78
2023/06/14 04:36:13;;;;;;;12.13;3.03;;;;;;;13.09;100.00;101750.63;5091358;28;20347;-79
2023/06/14 04:38:38;;;;;;;7.78;3.40;;;;;;;13.13;100.00;101754.75;5090940;28;20437;-79
2023/06/14 04:41:04;;;;;;;6.53;3.03;;;;;;;13.17;100.00;101749.00;5072611;28;20059;-80
2023/06/14 04:43:31;;;;;;;9.63;3.63;;;;;;;13.22;100.00;101745.91;5090833;28;20036;-80
2023/06/14 04:45:57;;;;;;;5.88;3.42;;;;;;;13.27;100.00;101751.72;5091173;28;20032;-80
2023/06/14 04:48:22;;;;;;;4.97;3.17;;;;;;;13.33;100.00;101753.84;5090801;28;20384;-79
2023/06/14 04:50:52;;;;;;;6.78;3.78;;;;;;;13.38;100.00;101751.63;5072833;28;20068;-78
2023/06/14 04:53:21;;;;;;;8.07;2.78;;;;;;;13.45;100.00;101743.94;5073839;28;20142;-79
2023/06/14 04:55:46;;;;;;;16.25;5.47;;;;;;;13.49;100.00;101741.81;5072832;28;20115;-78
2023/06/14 04:58:12;;;;;;;9.32;3.45;;;;;;;13.57;100.00;101744.69;5055609;28;20048;-78
2023/06/14 05:00:38;;;;;;;6.43;3.15;;;;;;;13.67;100.00;101739.34;5056010;28;20078;-80
2023/06/14 05:03:05;;;;;;;6.00;3.22;;;;;;;13.75;100.00;101745.69;5072446;28;20092;-78
2023/06/14 05:05:31;;;;;;;6.95;3.03;;;;;;;13.86;100.00;101751.91;5090379;28;20082;-79
2023/06/14 05:07:57;;;;;;;9.90;3.60;;;;;;;13.95;100.00;101747.56;5090827;28;20516;-79
2023/06/14 05:10:23;;;;;;;8.15;3.38;;;;;;;14.03;100.00;101753.91;5090453;28;20126;-79
2023/06/14 05:12:48;;;;;;;8.60;3.10;;;;;;;14.10;100.00;101759.53;5090506;28;20032;-79
2023/06/14 05:15:14;;;;;;;4.63;2.90;;;;;;;14.15;100.00;101756.44;5090627;28;20115;-79
2023/06/14 05:17:40;;;;;;;6.50;3.00;;;;;;;14.20;100.00;101756.88;5090691;28;20032;-80
2023/06/14 05:20:07;;;;;;;6.70;2.80;;;;;;;14.26;100.00;101761.66;5090527;28;20028;-81
2023/06/14 05:22:32;;;;;;;6.65;3.40;;;;;;;14.31;100.00;101770.09;5090129;28;20036;-80
2023/06/14 05:24:57;;;;;;;9.93;3.88;;;;;;;14.35;100.00;101766.16;5090445;28;20032;-80
2023/06/14 05:27:24;;;;;;;4.50;3.03;;;;;;;14.37;100.00;101769.53;5071940;28;20112;-79
2023/06/14 05:29:50;;;;;;;6.03;2.97;;;;;;;14.41;100.00;101768.25;5090395;28;20361;-80
2023/06/14 05:32:15;;;;;;;13.75;3.08;;;;;;;14.51;100.00;101770.09;5090368;28;20043;-80
2023/06/14 05:34:41;;;;;;;9.15;3.15;;;;;;;14.59;100.00;101770.22;5090196;28;20032;-80
2023/06/14 05:37:07;;;;;;;8.07;3.00;;;;;;;14.70;100.00;101770.09;5072200;28;20436;-80
2023/06/14 05:39:32;;;;;;;11.65;3.10;;;;;;;14.82;100.00;101762.75;5071764;28;20028;-81
2023/06/14 05:41:58;;;;;;;7.20;2.80;;;;;;;14.96;100.00;101767.66;5090166;28;20039;-81
2023/06/14 05:44:23;;;;;;;13.73;3.08;;;;;;;15.07;100.00;101765.78;5090391;28;20083;-82
2023/06/14 05:46:48;;;;;;;7.75;3.10;;;;;;;15.21;100.00;101772.50;5090273;28;20036;-80
2023/06/14 05:49:14;;;;;;;5.97;2.65;;;;;;;15.38;100.00;101771.75;5090261;28;20039;-81
2023/06/14 05:51:39;;;;;;;4.35;3.28;;;;;;;15.56;100.00;101770.97;5090248;28;20074;-80
2023/06/14 05:54:05;;;;;;;9.15;3.03;;;;;;;15.74;100.00;101774.50;5072049;28;20126;-80
2023/06/14 05:56:30;;;;;;;9.50;3.03;;;;;;;15.93;100.00;101775.41;5072373;28;20032;-79
2023/06/14 05:58:55;;;;;;;9.93;3.10;;;;;;;16.13;100.00;101785.00;5090220;28;20078;-79
2023/06/14 06:01:21;;;;;;;10.00;3.22;;;;;;;16.34;100.00;101787.38;5089876;28;20494;-80
2023/06/14 06:03:47;;;;;;;12.93;3.30;;;;;;;16.55;100.00;101784.38;5090349;28;20455;-78
2023/06/14 06:06:13;;;;;;;10.80;3.00;;;;;;;16.78;100.00;101788.41;5089711;28;20052;-77
2023/06/14 06:08:39;;;;;;;7.00;3.20;;;;;;;16.98;100.00;101786.41;5090054;28;20479;-79
2023/06/14 06:11:04;;;;;;;5.78;3.45;;;;;;;17.15;100.00;101780.09;5091379;28;20036;-77
2023/06/14 06:13:29;;;;;;;4.18;3.17;;;;;;;17.31;100.00;101786.59;5075803;28;20043;-79
2023/06/14 06:15:56;;;;;;;8.43;3.58;;;;;;;17.50;100.00;101789.03;5075861;28;20032;-79
2023/06/14 06:18:22;;;;;;;7.28;3.05;;;;;;;17.67;100.00;101789.09;5093850;28;20468;-79
2023/06/14 06:20:48;;;;;;;7.47;2.88;;;;;;;17.87;100.00;101790.53;5093885;28;20044;-80
2023/06/14 06:23:13;;;;;;;9.63;3.03;;;;;;;17.99;100.00;101793.78;5094647;28;20024;-79
2023/06/14 06:25:39;;;;;;;8.32;3.10;;;;;;;18.08;100.00;101783.88;5094434;28;20032;-79
2023/06/14 06:28:05;;;;;;;14.85;3.10;;;;;;;18.19;100.00;101797.00;5094412;28;20481;-74
2023/06/14 06:30:30;;;;;;;6.72;2.80;;;;;;;18.35;100.00;101790.78;5093743;28;20067;-77
2023/06/14 06:32:55;;;;;;;7.45;2.92;;;;;;;18.47;100.00;101799.41;5093976;28;20388;-77
2023/06/14 06:35:21;;;;;;;5.20;3.17;;;;;;;18.63;100.00;101796.69;5093647;28;20081;-77
2023/06/14 06:37:46;;;;;;;7.40;3.03;;;;;;;18.65;100.00;101799.22;5093882;28;20039;-77
2023/06/14 06:40:12;;;;;;;6.63;2.72;;;;;;;18.78;100.00;101794.16;5093611;28;20335;-74
2023/06/14 06:42:37;;;;;;;5.63;2.95;;;;;;;18.94;100.00;101803.25;5075471;28;20028;-76
2023/06/14 06:45:04;;;;;;;4.38;2.88;;;;;;;19.03;100.00;101799.53;5075545;28;20028;-74
2023/06/14 06:47:29;;;;;;;8.63;3.20;;;;;;;19.17;100.00;101804.22;5093747;28;20062;-77
2023/06/14 06:49:55;;;;;;;8.07;3.00;;;;;;;19.17;98.27;101809.63;5093493;28;20139;-73
2023/06/14 06:52:20;;;;;;;13.60;3.15;;;;;;;19.30;100.00;101806.41;5058576;28;20036;-73
2023/06/14 06:54:45;;;;;;;15.77;3.53;;;;;;;19.42;99.77;101808.69;5075210;28;20479;-74
2023/06/14 06:57:11;;;;;;;6.03;3.55;;;;;;;19.41;98.53;101809.72;5074656;28;20036;-73
2023/06/14 06:59:37;;;;;;;10.52;3.00;;;;;;;19.49;98.26;101815.91;5092967;28;20036;-73
2023/06/14 07:02:03;;;;;;;9.85;3.55;;;;;;;19.54;93.72;101818.09;5093121;28;20413;-72
2023/06/14 07:04:28;;;;;;;12.40;3.13;;;;;;;19.69;96.28;101827.16;5075090;28;20043;-73
2023/06/14 07:06:53;;;;;;;8.20;2.95;;;;;;;19.87;99.02;101832.34;5093031;28;20210;-76
2023/06/14 07:09:20;;;;;;;10.48;2.70;;;;;;;20.04;92.02;101822.28;5093620;28;20464;-71
2023/06/14 07:11:46;;;;;;;4.43;2.58;;;;;;;20.19;92.28;101827.75;5075011;28;20348;-71
2023/06/14 07:14:12;;;;;;;7.55;3.22;;;;;;;20.31;86.94;101827.34;5074584;28;20104;-72
2023/06/14 07:16:38;;;;;;;6.05;2.95;;;;;;;20.38;86.07;101829.16;5093050;28;20032;-71
2023/06/14 07:19:03;;;;;;;11.98;3.20;;;;;;;20.56;91.88;101831.56;5073996;28;20035;-75
2023/06/14 07:21:29;;;;;;;9.10;2.97;;;;;;;20.51;78.32;101830.41;5092321;28;20040;-72
2023/06/14 07:23:55;;;;;;;6.40;2.78;;;;;;;20.58;80.05;101825.97;5092600;28;20039;-71
2023/06/14 07:26:20;;;;;;;8.45;3.30;;;;;;;20.68;88.23;101829.28;5074407;28;20116;-72
2023/06/14 07:28:47;;;;;;;6.45;3.00;;;;;;;20.80;83.80;101828.88;5092659;28;20476;-73
2023/06/14 07:31:13;;;;;;;5.40;3.05;;;;;;;20.86;76.53;101828.97;5074003;28;20445;-72
2023/06/14 07:33:39;;;;;;;5.65;3.03;;;;;;;20.91;75.49;101833.81;5092405;28;20051;-72
2023/06/14 07:36:05;;;;;;;7.05;3.33;;;;;;;21.00;76.86;101843.53;5092405;28;20091;-73
2023/06/14 07:38:30;;;;;;;16.73;3.42;;;;;;;21.19;80.13;101841.31;5092844;28;20074;-73
2023/06/14 07:40:56;;;;;;;5.13;3.00;;;;;;;21.28;70.66;101843.75;5073998;28;20085;-72
2023/06/14 07:43:21;;;;;;;13.88;3.72;;;;;;;21.33;74.96;101845.91;5092403;28;20033;-72
2023/06/14 07:45:55;;;;;;;7.43;3.38;;;;;;;21.31;63.39;101840.66;5093613;28;20116;-72
2023/06/14 07:48:20;;;;;;;7.80;3.00;;;;;;;21.23;69.21;101843.47;5094632;28;20539;-74
2023/06/14 07:50:45;;;;;;;11.32;2.85;;;;;;;21.37;70.10;101851.78;5075124;28;20063;-74
2023/06/14 07:53:11;;;;;;;6.03;2.70;;;;;;;21.54;77.92;101852.47;5092283;28;20081;-73
2023/06/14 07:55:36;;;;;;;6.53;3.30;;;;;;;21.66;70.28;101851.81;5092424;28;20032;-78
2023/06/14 07:58:06;;;;;;;7.85;3.00;;;;;;;21.82;72.20;101858.88;5092357;28;20046;-76
2023/06/14 08:00:31;;;;;;;5.68;2.92;;;;;;;21.97;71.15;101860.72;5092000;28;20045;-73
2023/06/14 08:02:59;;;;;;;7.93;2.72;;;;;;;22.12;65.38;101852.56;5092386;28;20073;-79
2023/06/14 08:05:28;;;;;;;14.98;3.35;;;;;;;22.14;66.37;101864.91;5074292;28;20036;-78
2023/06/14 08:07:53;;;;;;;4.97;3.13;;;;;;;22.25;68.17;101862.72;5092431;28;20056;-76
2023/06/14 08:10:19;;;;;;;5.63;3.05;;;;;;;22.34;69.95;101861.59;5091654;28;20059;-75
2023/06/14 08:12:44;;;;;;;6.05;3.00;;;;;;;22.30;61.12;101862.97;5091772;28;20028;-74
2023/06/14 08:15:10;;;;;;;11.68;3.28;;;;;;;22.46;68.10;101861.94;5091521;28;20032;-75
2023/06/14 08:17:37;;;;;;;10.30;3.30;;;;;;;22.62;63.58;101855.41;5073604;28;20498;-74
2023/06/14 08:20:06;;;;;;;9.05;3.00;;;;;;;22.67;60.92;101858.38;5091768;28;20081;-74
2023/06/14 08:22:33;;;;;;;8.27;3.28;;;;;;;22.75;59.48;101862.81;5091513;28;20020;-75
2023/06/14 08:25:03;;;;;;;7.15;3.78;;;;;;;22.91;65.38;101857.09;5091406;28;20563;-77
2023/06/14 08:27:41;;;;;;;10.75;3.50;;;;;;;23.06;63.24;101859.72;5092164;28;20124;-75
2023/06/14 08:30:08;;;;;;;6.88;2.92;;;;;;;23.19;59.53;101854.41;5073805;28;20094;-76
2023/06/14 08:32:33;;;;;;;5.65;3.42;;;;;;;23.39;59.96;101848.28;5093290;28;20062;-75
2023/06/14 08:34:59;;;;;;;7.88;3.35;;;;;;;23.44;61.00;101856.66;5091242;28;20489;-90
2023/06/14 08:37:24;;;;;;;3.60;3.10;;;;;;;23.52;59.84;101853.78;5090881;28;20056;-77
2023/06/14 08:39:50;;;;;;;11.65;3.33;;;;;;;23.70;56.26;101853.25;5091344;28;20349;-75
2023/06/14 08:42:18;;;;;;;11.82;3.25;;;;;;;23.75;58.57;101863.50;5091121;28;20020;-79
2023/06/14 08:44:44;;;;;;;7.30;3.15;;;;;;;24.00;56.53;101855.69;5090990;28;20448;-79
2023/06/14 08:47:11;;;;;;;8.05;3.30;;;;;;;24.19;60.18;101864.13;5090788;28;20055;-77
2023/06/14 08:49:38;;;;;;;7.63;3.10;;;;;;;24.52;57.44;101847.84;5090932;28;20036;-76
2023/06/14 08:52:07;;;;;;;11.95;3.30;;;;;;;24.84;52.19;101858.16;5090868;28;20120;-76
2023/06/14 08:54:36;;;;;;;11.05;3.60;;;;;;;24.92;50.71;101849.78;5090688;28;20090;-76
2023/06/14 08:57:04;;;;;;;6.18;3.08;;;;;;;25.29;50.58;101855.56;5090831;28;20034;-78
2023/06/14 08:59:31;;;;;;;7.03;3.38;;;;;;;25.60;49.14;101857.66;5090647;28;20032;-75
2023/06/14 09:01:57;;;;;;;6.28;2.95;;;;;;;25.86;48.85;101864.03;5090705;28;20032;-77
2023/06/14 09:04:23;;;;;;;7.78;2.90;;;;;;;26.33;49.78;101867.34;5090552;28;20392;-75
2023/06/14 09:06:52;;;;;;;10.35;3.05;;;;;;;26.68;46.34;101855.22;5090816;28;20210;-74
2023/06/14 09:09:20;;;;;;;11.75;2.92;;;;;;;26.90;48.22;101858.34;5090647;28;20036;-74
2023/06/14 09:11:45;;;;;;;19.35;3.10;;;;;;;27.08;48.65;101852.09;5090873;28;20111;-77
2023/06/14 09:14:11;;;;;;;7.80;3.03;;;;;;;27.34;47.28;101858.41;5090864;28;20058;-74
2023/06/14 09:16:36;;;;;;;7.82;2.75;;;;;;;27.54;42.84;101858.97;5091508;28;20051;-75
2023/06/14 09:19:02;;;;;;;11.50;2.92;;;;;;;27.64;39.85;101861.19;5090779;28;20423;-74
2023/06/14 09:21:27;;;;;;;10.77;2.80;;;;;;;27.68;39.67;101854.22;5090638;28;20441;-73
2023/06/14 09:23:53;;;;;;;12.43;2.70;;;;;;;27.61;40.91;101861.66;5090547;28;20043;-71
2023/06/14 09:33:34;;;;;;;11.10;2.88;;;;;;;28.14;36.22;101862.88;4986725;28;20093;-74
2023/06/14 09:36:00;;;;;;;5.20;2.65;;;;;;;28.31;39.63;101860.34;5090865;28;20051;-75
2023/06/14 09:38:26;;;;;;;4.95;2.60;;;;;;;28.41;38.48;101868.81;5090458;28;20043;-72
2023/06/14 09:40:51;;;;;;;7.53;2.55;;;;;;;28.53;39.06;101862.50;5090156;28;20047;-72
2023/06/14 09:43:18;;;;;;;5.97;2.38;;;;;;;28.45;36.77;101863.69;5071724;28;20028;-71
2023/06/14 09:45:45;;;;;;;9.00;2.90;;;;;;;28.51;37.22;101865.47;5091332;28;20031;-74
2023/06/14 09:48:11;;;;;;;7.55;2.50;;;;;;;28.53;34.15;101859.78;5076684;28;20028;-71
2023/06/14 09:50:37;;;;;;;7.32;2.63;;;;;;;28.64;37.50;101864.47;5094640;28;20044;-71
2023/06/14 09:53:06;;;;;;;7.15;2.78;;;;;;;28.85;37.68;101872.13;5094719;28;20043;-71
2023/06/14 09:55:36;;;;;;;12.18;2.95;;;;;;;28.96;34.55;101861.41;5075967;28;20341;-71
2023/06/14 09:58:05;;;;;;;10.05;2.75;;;;;;;29.02;33.68;101863.19;5094327;28;20020;-72
2023/06/14 10:00:33;;;;;;;7.87;2.70;;;;;;;29.13;36.07;101862.38;5094600;28;20024;-77
2023/06/14 10:03:03;;;;;;;9.02;2.83;;;;;;;29.15;34.94;101862.13;5094447;28;20486;-78
2023/06/14 10:05:29;;;;;;;9.02;2.53;;;;;;;29.19;33.45;101872.34;5094756;28;20488;-81
2023/06/14 10:08:04;;;;;;;8.70;2.70;;;;;;;29.32;34.24;101868.56;5093603;28;20073;-75
2023/06/14 10:10:30;;;;;;;10.32;2.35;;;;;;;29.32;35.16;101860.34;5094097;28;20414;-72
2023/06/14 10:12:56;;;;;;;8.95;2.53;;;;;;;29.62;35.62;101859.34;5075259;28;20069;-72
2023/06/14 10:15:52;;;;;;;7.07;2.67;;;;;;;29.87;34.04;101859.06;5075136;28;20447;-73
2023/06/14 10:18:26;;;;;;;4.60;2.70;;;;;;;30.06;33.94;101859.66;5075136;28;20081;-72
2023/06/14 10:21:04;;;;;;;8.60;2.28;;;;;;;30.02;32.46;101864.00;5075317;28;20424;-74
2023/06/14 10:23:32;;;;;;;6.72;2.42;;;;;;;29.96;30.83;101856.72;5094339;28;20325;-71
2023/06/14 10:25:59;;;;;;;7.53;2.22;;;;;;;30.22;32.62;101863.53;5076468;28;20096;-72
2023/06/14 10:28:25;;;;;;;4.45;2.40;;;;;;;30.45;32.51;101856.28;5058790;28;20059;-72
2023/06/14 10:31:10;;;;;;;7.82;2.20;;;;;;;30.64;32.65;101854.13;5093572;28;20028;-74
2023/06/14 10:33:57;;;;;;;4.15;2.47;;;;;;;30.81;31.78;101856.03;5075445;28;20036;-72
2023/06/14 10:36:22;;;;;;;10.40;2.42;;;;;;;30.81;30.13;101850.53;5093442;28;20405;-72
2023/06/14 10:39:00;;;;;;;11.70;3.75;;;;;;;31.08;29.17;101856.19;5093589;28;20039;-71
2023/06/14 10:41:28;;;;;;;2.72;2.20;;;;;;;31.26;32.55;101857.81;5093339;28;20158;-72
2023/06/14 10:44:10;;;;;;;4.40;2.30;;;;;;;31.61;31.50;101859.41;5093637;28;20046;-74
2023/06/14 10:46:35;;;;;;;4.32;2.13;;;;;;;31.95;30.05;101862.00;5093754;28;20161;-73
2023/06/14 10:49:03;;;;;;;6.55;2.33;;;;;;;31.80;28.65;101866.22;5058639;28;20069;-72
2023/06/14 10:51:29;;;;;;;4.82;1.73;;;;;;;31.77;29.12;101858.50;5093678;28;20128;-79
2023/06/14 10:53:58;;;;;;;8.25;2.20;;;;;;;31.87;28.54;101860.50;5094660;28;20088;-77
2023/06/14 10:56:30;;;;;;;4.53;2.00;;;;;;;32.23;29.25;101862.84;5092918;28;20059;-77
2023/06/14 10:58:59;;;;;;;3.45;1.77;;;;;;;32.56;26.23;101853.50;5093871;28;20032;-76
2023/06/14 11:01:38;;;;;;;4.57;1.88;;;;;;;32.72;26.39;101861.91;5092742;28;20036;-80
2023/06/14 11:04:09;;;;;;;2.67;2.00;;;;;;;32.86;26.39;101872.22;5075239;28;20110;-78
2023/06/14 11:06:49;;;;;;;4.85;2.20;;;;;;;33.38;26.88;101858.75;5093741;28;20104;-79
2023/06/14 11:09:37;;;;;;;5.82;2.10;;;;;;;33.72;26.03;101853.63;5093333;28;20028;-71
2023/06/14 11:12:03;;;;;;;7.10;1.98;;;;;;;33.70;25.73;101855.84;5074707;28;20460;-68
2023/06/14 11:14:32;;;;;;;6.82;1.95;;;;;;;34.02;26.21;101845.75;5074312;28;20047;-73
2023/06/14 11:16:57;;;;;;;3.42;2.00;;;;;;;33.81;25.17;101842.94;5092854;28;20027;-76
2023/06/14 11:19:23;;;;;;;9.00;2.60;;;;;;;33.81;26.32;101842.94;5092801;28;20036;-75
2023/06/14 11:21:49;;;;;;;3.40;1.77;;;;;;;33.87;27.15;101846.53;5074293;28;20048;-75
2023/06/14 11:24:15;;;;;;;5.97;2.08;;;;;;;33.98;27.30;101842.72;5074878;28;20163;-74
2023/06/14 11:26:41;;;;;;;13.32;2.25;;;;;;;34.26;30.39;101857.97;5093111;28;20024;-73